To NAV CANADA Home Page Login to a new session Search on AWWS site Feedback and Comments Disclaimer Vers la page française équivalente Tips FAQ What's new on the site To the Forecasts and Observations / NOTAM section To "File a Flight Plan" website Publications and other links Update of the User's profile FIC Telephone Numbers My Weather Data Folder Route Weather Data Regional Weather Data Local Weather Data To the Forecasts and Observations / NOTAM section
Request Generated 04/27/2015 at 22:11:20 UTC . Weather information available at that time is displayed.

METAR/TAF

WINNIPEG/JAMES ARMSTRONG RICHARDSON INTL/MB    

METAR CYWG 272200Z 31009KT 15SM -SHRA FEW015 BKN060 OVC080 08/05
A3025 RMK SF1SC6AC1 ACC EMBD SLP252=
METAR CYWG 272100Z 31006KT 12SM FEW015 BKN050 OVC080 08/05 A3027 RMK
SC1SC6AC1 ACC EMBD SLP256=
METAR CYWG 272000Z 31011KT 12SM FEW013 BKN040 OVC070 07/05 A3027 RMK
SC2SC5AC1 ACC EMBD SLP257=

TAF CYWG 271738Z 2718/2818 34009KT P6SM FEW020 OVC080 TEMPO 2718/2722
P6SM -SHRA BKN020 OVC060
FM272200 31008KT P6SM SCT030 BKN070 TEMPO 2722/2802 P6SM -SHRA
BKN030 OVC060
FM280300 30006KT P6SM SKC
BECMG 2804/2806 VRB03KT
FM281500 32008KT P6SM FEW250
RMK NXT FCST BY 280000Z=
Your time UTC time
Weather data provided by Environment Canada and NAV CANADA